»·PEaware :: UAL1399 KPDX-KGEG

UAL1399 :: KPDX-KGEG

FLIGHT INFORMATION

Flight Status: Arrived
Operator:
United Airlines
More flights by this operator :: More flights under this callsign
Pilot: David C. (16084)
Aircraft: AIRBUS A320
(A320)
More flights by this aircraft type
Origin: KPDX Portland Intl
United States
Destination: KGEG Spokane Intl
United States
More flights between these airports :: More routes between these airports
Route: LAVAA6 YKM MWH ZOOMR1
File this flight plan on PilotEdge
Remarks:
Altitude:
(Current/Filed)
29,000ft
Speed:
(Current/Filed)
470kts
Departed: 30-Apr-18 09:54 AM
Arrived: 30-Apr-18 10:48 AM
Distance/Time
Traveled:
242nm/0:54
Distance/Time
To Go:
Arrived

Flight Plot

Page will automatically refresh every two minutes.

Flight plan parsing failed; only flown route is shown


Map Options




Map Legend


Flown Route
Filed Route
Departure Airport
Arrival Airport
Navaid (VOR, NDB)
Fix

Horizontal Profiles

Position Reports

Time Latitude Longitude Heading Altitude Ground
Speed
30-Apr-18 09:26 45.590228 -122.591577 209 38ft 0kts
30-Apr-18 09:27 45.590228 -122.591577 209 38ft 0kts
30-Apr-18 09:28 45.590228 -122.591577 209 38ft 0kts
30-Apr-18 09:29 45.590228 -122.591577 209 38ft 0kts
30-Apr-18 09:30 45.590228 -122.591577 209 38ft 0kts
30-Apr-18 09:31 45.590228 -122.591577 209 38ft 0kts
30-Apr-18 09:32 45.590228 -122.591577 209 38ft 0kts
30-Apr-18 09:33 45.590228 -122.591577 209 38ft 0kts
30-Apr-18 09:34 45.590228 -122.591577 209 38ft 0kts
30-Apr-18 09:35 45.590228 -122.591577 209 38ft 0kts
30-Apr-18 09:36 45.590228 -122.591577 209 38ft 0kts
30-Apr-18 09:37 45.590228 -122.591577 209 38ft 0kts
30-Apr-18 09:38 45.590228 -122.591577 209 38ft 0kts
30-Apr-18 09:39 45.590228 -122.591577 209 38ft 0kts
30-Apr-18 09:40 45.590228 -122.591577 209 38ft 0kts
30-Apr-18 09:41 45.590228 -122.591577 209 38ft 0kts
30-Apr-18 09:42 45.590228 -122.591577 209 38ft 0kts
30-Apr-18 09:43 45.590391 -122.591446 209 38ft 2kts
30-Apr-18 09:44 45.590805 -122.590907 265 38ft 2kts
30-Apr-18 09:45 45.590742 -122.590573 299 38ft 0kts
30-Apr-18 09:46 45.590742 -122.590573 299 38ft 0kts
30-Apr-18 09:47 45.591432 -122.592405 296 38ft 16kts
30-Apr-18 09:48 45.593740 -122.598264 300 38ft 0kts
30-Apr-18 09:49 45.593740 -122.598263 300 38ft 0kts
30-Apr-18 09:50 45.593740 -122.598263 300 38ft 0kts
30-Apr-18 09:51 45.594959 -122.596661 64 38ft 13kts
30-Apr-18 09:52 45.594924 -122.595851 117 38ft 0kts
30-Apr-18 09:53 45.578442 -122.552927 117 820ft 205kts
30-Apr-18 09:54 45.567850 -122.473589 99 4201ft 217kts
30-Apr-18 09:55 45.553143 -122.390545 102 7359ft 227kts
30-Apr-18 09:56 45.551968 -122.307906 45 10230ft 229kts
30-Apr-18 09:57 45.599079 -122.236243 45 12514ft 279kts
30-Apr-18 09:58 45.651281 -122.151915 60 14959ft 302kts
30-Apr-18 09:59 45.686655 -122.042650 62 16809ft 314kts
30-Apr-18 10:00 45.722844 -121.930194 62 19450ft 323kts
30-Apr-18 10:01 45.768650 -121.818743 46 21249ft 346kts
30-Apr-18 10:02 45.831258 -121.714014 46 23385ft 353kts
30-Apr-18 10:03 45.895404 -121.606166 46 25272ft 363kts
30-Apr-18 10:04 45.959566 -121.497848 46 27149ft 365kts
30-Apr-18 10:05 46.025666 -121.385772 46 28684ft 374kts
30-Apr-18 10:06 46.093409 -121.270462 47 29231ft 397kts
30-Apr-18 10:07 46.166778 -121.144907 47 29216ft 434kts
30-Apr-18 10:08 46.245605 -121.009527 48 29166ft 444kts
30-Apr-18 10:09 46.323313 -120.875468 48 29151ft 443kts
30-Apr-18 10:10 46.402019 -120.738942 48 29147ft 442kts
30-Apr-18 10:11 46.480480 -120.602159 48 29145ft 442kts
30-Apr-18 10:12 46.559075 -120.464456 48 29146ft 442kts
30-Apr-18 10:13 46.637557 -120.328429 48 29151ft 443kts
30-Apr-18 10:14 46.716409 -120.191559 48 29153ft 443kts
30-Apr-18 10:16 46.795325 -120.053845 48 29151ft 443kts
30-Apr-18 10:17 46.873727 -119.916332 48 28837ft 442kts
30-Apr-18 10:18 46.952427 -119.777593 48 27840ft 446kts
30-Apr-18 10:19 47.031685 -119.637166 47 26862ft 451kts
30-Apr-18 10:20 47.110053 -119.497590 47 25918ft 456kts
30-Apr-18 10:21 47.189586 -119.354924 49 24959ft 460kts
30-Apr-18 10:22 47.239548 -119.185155 68 23865ft 460kts
30-Apr-18 10:23 47.277275 -119.010868 69 21335ft 443kts
30-Apr-18 10:24 47.313377 -118.842421 69 18727ft 430kts
30-Apr-18 10:25 47.348338 -118.677909 70 16076ft 419kts
30-Apr-18 10:26 47.382118 -118.517726 71 13430ft 408kts
30-Apr-18 10:27 47.414587 -118.362547 71 11335ft 381kts
30-Apr-18 10:28 47.442567 -118.228092 72 10420ft 336kts
30-Apr-18 10:29 47.467747 -118.106160 72 9767ft 294kts
30-Apr-18 10:30 47.478542 -117.990225 95 8897ft 295kts
30-Apr-18 10:31 47.470235 -117.872476 95 7125ft 282kts
30-Apr-18 10:32 47.472883 -117.759087 75 7025ft 283kts
30-Apr-18 10:32 47.488816 -117.666049 75 7026ft 283kts
30-Apr-18 10:33 47.507609 -117.555859 75 7030ft 283kts
30-Apr-18 10:34 47.533733 -117.448080 55 7042ft 283kts
30-Apr-18 10:35 47.576264 -117.353797 55 7057ft 264kts
30-Apr-18 10:36 47.616608 -117.274369 45 6627ft 247kts
30-Apr-18 10:38 47.666395 -117.197262 45 6043ft 202kts
30-Apr-18 10:38 47.701819 -117.156264 358 5927ft 201kts
30-Apr-18 10:39 47.744367 -117.200890 315 5052ft 185kts
30-Apr-18 10:40 47.767376 -117.261128 257 5044ft 179kts
30-Apr-18 10:41 47.754094 -117.331010 232 5045ft 174kts
30-Apr-18 10:42 47.725412 -117.376719 224 4972ft 151kts
30-Apr-18 10:43 47.696670 -117.419889 224 4212ft 147kts
30-Apr-18 10:44 47.669553 -117.460639 224 3478ft 135kts
30-Apr-18 10:45 47.643470 -117.499865 224 2767ft 134kts
30-Apr-18 10:46 47.621741 -117.532444 226 2393ft 41kts
30-Apr-18 10:47 47.621358 -117.537159 46 2393ft 21kts
30-Apr-18 10:48 47.625457 -117.532895 320 2393ft 14kts
30-Apr-18 10:49 47.625919 -117.535042 216 2393ft 0kts

Navigation Log

Ident Type
Flight plan parsing failed, navigation log unavailable